createdAt,value
2019-03-29T00:01:08.915Z,23.38
2019-03-29T00:03:13.140Z,26.10
2019-03-29T00:05:19.185Z,28.32
2019-03-29T00:07:23.033Z,28.62
2019-03-29T00:09:27.860Z,26.75
2019-03-29T00:11:33.855Z,26.62
2019-03-29T00:13:38.086Z,26.55
2019-03-29T00:15:41.898Z,26.42
2019-03-29T00:17:46.083Z,24.87
2019-03-29T00:19:50.215Z,25.20
2019-03-29T00:21:54.304Z,24.52
2019-03-29T00:24:06.772Z,23.18
2019-03-29T00:26:04.373Z,27.93
2019-03-29T00:28:08.586Z,24.02
2019-03-29T00:30:12.798Z,26.97
2019-03-29T00:32:16.922Z,26.82
2019-03-29T00:34:21.024Z,28.15
2019-03-29T00:36:25.879Z,24.35
2019-03-29T00:38:29.754Z,23.50
2019-03-29T00:40:33.850Z,21.48
2019-03-29T00:42:37.985Z,26.77
2019-03-29T00:44:42.077Z,27.10
2019-03-29T00:46:46.195Z,22.98
2019-03-29T00:48:52.353Z,22.60
2019-03-29T00:50:56.178Z,22.05
2019-03-29T00:53:00.112Z,19.42
2019-03-29T00:55:04.196Z,25.68
2019-03-29T00:57:08.372Z,19.85
2019-03-29T00:59:14.970Z,23.95
2019-03-29T01:01:19.266Z,23.47
2019-03-29T01:03:23.093Z,21.42
2019-03-29T01:05:26.952Z,24.37
2019-03-29T01:07:30.930Z,24.43
2019-03-29T01:09:35.546Z,21.80
2019-03-29T01:11:40.899Z,18.45
2019-03-29T01:13:45.464Z,22.40
2019-03-29T01:15:49.666Z,20.43
2019-03-29T01:17:53.783Z,19.82
2019-03-29T01:19:59.220Z,20.40
2019-03-29T01:22:03.437Z,19.10
2019-03-29T01:24:07.560Z,19.35
2019-03-29T01:26:11.650Z,22.17
2019-03-29T01:28:15.874Z,23.22
2019-03-29T01:30:19.978Z,23.90
2019-03-29T01:32:23.814Z,23.35
2019-03-29T01:34:27.994Z,20.85
2019-03-29T01:36:32.103Z,22.82
2019-03-29T01:38:36.215Z,21.95
2019-03-29T01:40:41.153Z,20.23
2019-03-29T01:42:45.868Z,26.60
2019-03-29T01:44:53.883Z,17.75
2019-03-29T01:46:59.201Z,20.97
2019-03-29T01:49:03.314Z,20.30
2019-03-29T01:51:07.452Z,20.08
2019-03-29T01:53:11.346Z,19.73
2019-03-29T01:55:16.164Z,15.23
2019-03-29T01:57:20.014Z,17.20
2019-03-29T01:59:24.175Z,19.85
2019-03-29T02:01:29.169Z,18.80
2019-03-29T02:03:33.102Z,18.42
2019-03-29T02:05:37.246Z,15.88
2019-03-29T02:07:41.446Z,18.15
2019-03-29T02:09:45.668Z,15.98
2019-03-29T02:11:49.508Z,18.70
2019-03-29T02:13:56.332Z,16.48
2019-03-29T02:16:03.966Z,16.17
2019-03-29T02:18:07.930Z,15.68
2019-03-29T02:20:12.246Z,18.87
2019-03-29T02:22:16.341Z,18.50
2019-03-29T02:24:23.287Z,16.05
2019-03-29T02:26:28.372Z,15.95
2019-03-29T02:28:32.578Z,15.38
2019-03-29T02:30:36.801Z,14.18
2019-03-29T02:32:40.629Z,16.40
2019-03-29T02:34:44.805Z,13.50
2019-03-29T02:36:49.024Z,13.25
2019-03-29T02:38:55.476Z,13.25
2019-03-29T02:40:59.372Z,14.38
2019-03-29T02:43:03.502Z,12.30
2019-03-29T02:45:07.830Z,16.55
2019-03-29T02:47:12.019Z,13.72
2019-03-29T02:49:16.163Z,14.03
2019-03-29T02:51:20.237Z,14.98
2019-03-29T02:53:25.985Z,14.45
2019-03-29T02:55:29.824Z,12.82
2019-03-29T02:57:35.754Z,15.32
2019-03-29T02:59:39.957Z,12.33
2019-03-29T03:01:45.420Z,13.13
2019-03-29T03:03:49.610Z,12.00
2019-03-29T03:05:54.647Z,13.68
2019-03-29T03:07:59.358Z,15.38
2019-03-29T03:10:05.293Z,17.25
2019-03-29T03:12:09.114Z,10.98
2019-03-29T03:14:13.258Z,14.75
2019-03-29T03:16:17.387Z,14.07
2019-03-29T03:18:24.139Z,11.90
2019-03-29T03:20:28.328Z,12.33
2019-03-29T03:22:32.483Z,11.20
2019-03-29T03:24:37.550Z,10.10
2019-03-29T03:26:41.693Z,11.93
2019-03-29T03:28:45.812Z,9.10
2019-03-29T03:30:49.909Z,9.48
2019-03-29T03:32:54.146Z,11.80
2019-03-29T03:34:58.035Z,12.30
2019-03-29T03:37:01.846Z,9.50
2019-03-29T03:39:08.740Z,14.05
2019-03-29T03:41:12.574Z,11.35
2019-03-29T03:43:16.717Z,11.50
2019-03-29T03:45:21.556Z,13.43
2019-03-29T03:47:25.657Z,11.90
2019-03-29T03:49:29.786Z,12.00
2019-03-29T03:51:34.406Z,13.58
2019-03-29T03:53:40.546Z,14.23
2019-03-29T03:55:44.556Z,16.70
2019-03-29T03:57:52.667Z,13.60
2019-03-29T03:59:57.276Z,13.18
2019-03-29T04:02:01.530Z,13.28
2019-03-29T04:04:05.707Z,13.60
2019-03-29T04:06:09.520Z,15.15
2019-03-29T04:08:13.837Z,11.95
2019-03-29T04:10:18.045Z,11.83
2019-03-29T04:12:24.769Z,11.30
2019-03-29T04:14:28.566Z,13.90
2019-03-29T04:16:32.729Z,15.88
2019-03-29T04:18:37.878Z,16.02
2019-03-29T04:20:42.792Z,17.35
2019-03-29T04:22:46.616Z,16.25
2019-03-29T04:24:50.468Z,22.22
2019-03-29T04:26:54.704Z,16.32
2019-03-29T04:29:04.576Z,17.45
2019-03-29T04:31:06.515Z,25.40
2019-03-29T04:33:11.258Z,17.60
2019-03-29T04:35:15.750Z,19.82
2019-03-29T04:37:19.980Z,16.10
2019-03-29T04:39:23.829Z,14.43
2019-03-29T04:41:27.978Z,17.67
2019-03-29T04:43:32.096Z,15.10
2019-03-29T04:45:36.316Z,18.27
2019-03-29T04:47:40.428Z,20.17
2019-03-29T04:49:46.169Z,22.77
2019-03-29T04:51:53.996Z,20.05
2019-03-29T04:54:01.357Z,18.77
2019-03-29T04:56:05.461Z,21.80
2019-03-29T04:58:09.665Z,20.37
2019-03-29T05:00:14.445Z,24.55
2019-03-29T05:02:18.614Z,23.07
2019-03-29T05:04:22.823Z,23.38
2019-03-29T05:06:29.186Z,27.90
2019-03-29T05:08:33.419Z,24.20
2019-03-29T05:10:37.614Z,28.15
2019-03-29T05:12:42.742Z,27.52
2019-03-29T05:14:46.959Z,26.05
2019-03-29T05:16:51.069Z,34.45
2019-03-29T05:18:55.285Z,28.25
2019-03-29T05:20:59.503Z,30.45
2019-03-29T05:23:03.330Z,25.12
2019-03-29T05:25:07.515Z,33.20
2019-03-29T05:27:11.365Z,30.52
2019-03-29T05:29:15.526Z,30.92
2019-03-29T05:31:19.637Z,29.90
2019-03-29T05:33:23.851Z,26.52
2019-03-29T05:35:28.643Z,26.37
2019-03-29T05:37:32.779Z,29.42
2019-03-29T05:39:37.003Z,27.98
2019-03-29T05:41:41.105Z,38.70
2019-03-29T05:43:45.246Z,30.65
2019-03-29T05:45:50.970Z,33.83
2019-03-29T05:47:55.301Z,34.43
2019-03-29T05:49:59.119Z,30.62
2019-03-29T05:52:03.301Z,30.50
2019-03-29T05:54:07.531Z,30.50
2019-03-29T05:56:11.725Z,27.40
2019-03-29T05:58:17.775Z,26.65
2019-03-29T06:00:22.474Z,39.25
2019-03-29T06:02:26.611Z,30.10
2019-03-29T06:04:30.844Z,27.10
2019-03-29T06:06:34.949Z,29.72
2019-03-29T06:08:39.153Z,30.60
2019-03-29T06:10:49.298Z,29.87
2019-03-29T06:12:50.341Z,31.65
2019-03-29T06:14:54.177Z,33.40
2019-03-29T06:16:58.354Z,28.67
2019-03-29T06:19:02.463Z,32.50
2019-03-29T06:21:06.301Z,30.17
2019-03-29T06:23:10.221Z,26.85
2019-03-29T06:25:14.981Z,25.95
2019-03-29T06:27:21.247Z,29.70
2019-03-29T06:29:25.378Z,33.00
2019-03-29T06:31:29.590Z,34.73
2019-03-29T06:33:33.419Z,30.48
2019-03-29T06:35:40.329Z,31.93
2019-03-29T06:37:46.085Z,31.10
2019-03-29T06:39:52.983Z,33.38
2019-03-29T06:41:56.805Z,28.32
2019-03-29T06:44:01.007Z,27.42
2019-03-29T06:46:05.216Z,28.67
2019-03-29T06:48:09.052Z,31.33
2019-03-29T06:50:14.154Z,30.40
2019-03-29T06:52:18.573Z,27.40
2019-03-29T06:54:23.283Z,28.42
2019-03-29T06:56:27.411Z,32.60
2019-03-29T06:58:33.559Z,38.35
2019-03-29T07:00:37.679Z,35.33
2019-03-29T07:02:41.795Z,31.80
2019-03-29T07:04:45.707Z,33.70
2019-03-29T07:06:49.562Z,31.07
2019-03-29T07:08:57.178Z,28.47
2019-03-29T07:11:01.017Z,28.00
2019-03-29T07:13:05.195Z,27.87
2019-03-29T07:15:09.715Z,27.90
2019-03-29T07:17:13.930Z,27.90
2019-03-29T07:19:18.045Z,28.62
2019-03-29T07:21:22.456Z,26.50
2019-03-29T07:23:37.008Z,23.35
2019-03-29T07:25:40.827Z,26.00
2019-03-29T07:27:51.901Z,27.95
2019-03-29T07:29:50.995Z,27.93
2019-03-29T07:31:55.193Z,24.40
2019-03-29T07:34:00.406Z,23.80
2019-03-29T07:36:07.617Z,24.90
2019-03-29T07:38:11.831Z,25.35
2019-03-29T07:40:15.955Z,23.07
2019-03-29T07:42:20.145Z,28.73
2019-03-29T07:44:24.747Z,25.05
2019-03-29T07:46:28.890Z,22.95
2019-03-29T07:48:34.634Z,23.15
2019-03-29T07:50:38.704Z,25.80
2019-03-29T07:52:42.533Z,21.80
2019-03-29T07:54:46.379Z,19.75
2019-03-29T07:56:50.557Z,19.95
2019-03-29T07:58:54.677Z,19.50
2019-03-29T08:00:59.996Z,19.35
2019-03-29T08:03:03.810Z,16.37
2019-03-29T08:05:07.985Z,15.32
2019-03-29T08:07:12.151Z,15.78
2019-03-29T08:09:22.206Z,16.48
2019-03-29T08:11:26.340Z,14.40
2019-03-29T08:13:27.860Z,12.90
2019-03-29T08:15:32.058Z,14.87
2019-03-29T08:17:36.283Z,14.58
2019-03-29T08:19:40.490Z,15.43
2019-03-29T08:21:44.312Z,13.68
2019-03-29T08:23:48.496Z,15.35
2019-03-29T08:25:52.306Z,15.83
2019-03-29T08:27:56.508Z,15.95
2019-03-29T08:30:00.615Z,17.50
2019-03-29T08:32:06.892Z,17.55
2019-03-29T08:34:10.992Z,16.42
2019-03-29T08:36:14.898Z,12.87
2019-03-29T08:38:18.706Z,14.23
2019-03-29T08:40:22.602Z,16.13
2019-03-29T08:42:26.504Z,15.37
2019-03-29T08:44:30.309Z,15.13
2019-03-29T08:46:35.642Z,24.23
2019-03-29T08:48:39.557Z,20.97
2019-03-29T08:50:44.282Z,14.17
2019-03-29T08:52:48.102Z,16.10
2019-03-29T08:54:52.910Z,15.23
2019-03-29T08:56:57.107Z,18.57
2019-03-29T08:59:00.933Z,18.03
2019-03-29T09:01:05.125Z,12.73
2019-03-29T09:03:08.962Z,13.53
2019-03-29T09:05:12.860Z,14.63
2019-03-29T09:07:18.158Z,12.73
2019-03-29T09:09:21.998Z,15.27
2019-03-29T09:11:25.902Z,12.17
2019-03-29T09:13:29.798Z,13.37
2019-03-29T09:15:33.602Z,12.27
2019-03-29T09:17:37.128Z,12.03
2019-03-29T09:19:41.009Z,14.43
2019-03-29T09:21:44.915Z,12.80
2019-03-29T09:23:48.927Z,12.47
2019-03-29T09:25:52.855Z,12.13
2019-03-29T09:27:56.737Z,10.83
2019-03-29T09:30:00.662Z,10.63
2019-03-29T09:32:04.647Z,11.57
2019-03-29T09:34:08.587Z,10.30
2019-03-29T09:36:12.461Z,10.73
2019-03-29T09:38:16.468Z,10.60
2019-03-29T09:40:20.242Z,16.53
2019-03-29T09:42:29.536Z,9.03
2019-03-29T09:44:29.948Z,10.93
2019-03-29T09:46:33.830Z,8.53
2019-03-29T09:48:37.361Z,14.23
2019-03-29T09:50:40.925Z,13.77
2019-03-29T09:52:44.836Z,10.20
2019-03-29T09:54:49.452Z,9.10
2019-03-29T09:56:53.355Z,10.33
2019-03-29T09:58:57.150Z,10.13
2019-03-29T10:01:00.974Z,9.60
2019-03-29T10:03:04.536Z,9.67
2019-03-29T10:05:08.670Z,9.43
2019-03-29T10:07:12.209Z,8.77
2019-03-29T10:09:15.764Z,11.13
2019-03-29T10:11:21.870Z,8.40
2019-03-29T10:13:24.536Z,10.37
2019-03-29T10:15:28.394Z,10.83
2019-03-29T10:17:31.924Z,11.73
2019-03-29T10:19:35.805Z,10.13
2019-03-29T10:21:39.353Z,12.53
2019-03-29T10:23:43.196Z,12.30
2019-03-29T10:25:47.335Z,14.10
2019-03-29T10:27:51.210Z,10.10
2019-03-29T10:29:55.018Z,8.70
2019-03-29T10:32:07.575Z,12.50
2019-03-29T10:34:08.358Z,11.77
2019-03-29T10:36:12.296Z,9.43
2019-03-29T10:38:18.292Z,12.13
2019-03-29T10:40:22.832Z,9.60
2019-03-29T10:42:26.646Z,10.63
2019-03-29T10:44:30.550Z,10.87
2019-03-29T10:46:34.451Z,12.60
2019-03-29T10:48:38.254Z,10.27
2019-03-29T10:50:42.064Z,12.23
2019-03-29T10:52:45.977Z,12.50
2019-03-29T10:54:50.203Z,8.87
2019-03-29T10:56:54.102Z,11.90
2019-03-29T10:58:57.649Z,10.87
2019-03-29T11:01:01.798Z,11.93
2019-03-29T11:03:06.516Z,11.43
2019-03-29T11:05:10.526Z,11.40
2019-03-29T11:07:14.048Z,11.73
2019-03-29T11:09:17.928Z,10.53
2019-03-29T11:11:21.536Z,10.60
2019-03-29T11:13:29.928Z,8.33
2019-03-29T11:15:34.256Z,10.47
2019-03-29T11:17:38.150Z,9.00
2019-03-29T11:19:42.004Z,11.90
2019-03-29T11:21:45.858Z,8.10
2019-03-29T11:23:49.764Z,8.47
2019-03-29T11:25:53.690Z,8.47
2019-03-29T11:27:57.586Z,11.23
2019-03-29T11:30:01.129Z,7.97
2019-03-29T11:32:05.036Z,10.10
2019-03-29T11:34:08.603Z,9.43
2019-03-29T11:36:13.218Z,10.17
2019-03-29T11:38:17.105Z,9.07
2019-03-29T11:40:21.019Z,9.70
2019-03-29T11:42:26.212Z,10.17
2019-03-29T11:44:30.424Z,10.60
2019-03-29T11:46:35.200Z,9.90
2019-03-29T11:48:39.096Z,8.80
2019-03-29T11:50:42.616Z,9.03
2019-03-29T11:52:46.515Z,9.87
2019-03-29T11:54:51.447Z,9.87
2019-03-29T11:56:55.242Z,10.50
2019-03-29T11:58:59.130Z,9.60
2019-03-29T12:01:05.487Z,9.57
2019-03-29T12:03:09.568Z,8.87
2019-03-29T12:05:14.018Z,8.13
2019-03-29T12:07:17.920Z,8.07
2019-03-29T12:09:21.434Z,11.57
2019-03-29T12:11:24.972Z,11.13
2019-03-29T12:13:40.531Z,10.23
2019-03-29T12:15:34.084Z,10.70
2019-03-29T12:17:37.964Z,10.50
2019-03-29T12:19:41.495Z,10.07
2019-03-29T12:21:45.368Z,10.33
2019-03-29T12:23:49.998Z,8.60
2019-03-29T12:25:53.517Z,9.73
2019-03-29T12:27:57.399Z,7.70
2019-03-29T12:30:01.312Z,8.60
2019-03-29T12:32:05.826Z,7.87
2019-03-29T12:34:09.716Z,7.53
2019-03-29T12:36:14.415Z,9.37
2019-03-29T12:38:18.569Z,8.03
2019-03-29T12:40:22.086Z,8.57
2019-03-29T12:42:25.952Z,7.77
2019-03-29T12:44:29.856Z,9.30
2019-03-29T12:46:33.740Z,8.73
2019-03-29T12:48:37.186Z,7.97
2019-03-29T12:50:40.734Z,8.60
2019-03-29T12:52:44.322Z,9.07
2019-03-29T12:54:48.187Z,7.40
2019-03-29T12:56:52.058Z,8.07
2019-03-29T12:58:55.870Z,6.87
2019-03-29T13:00:59.414Z,9.67
2019-03-29T13:03:03.819Z,7.03
2019-03-29T13:05:08.045Z,6.83
2019-03-29T13:07:11.758Z,7.50
2019-03-29T13:09:15.592Z,8.73
2019-03-29T13:11:19.509Z,6.37
2019-03-29T13:13:23.416Z,11.27
2019-03-29T13:15:26.923Z,6.57
2019-03-29T13:17:30.820Z,7.63
2019-03-29T13:19:34.715Z,7.23
2019-03-29T13:21:38.984Z,7.77
2019-03-29T13:23:42.529Z,6.63
2019-03-29T13:25:46.339Z,7.80
2019-03-29T13:27:49.873Z,7.43
2019-03-29T13:29:53.397Z,7.93
2019-03-29T13:31:58.480Z,8.33
2019-03-29T13:34:02.490Z,7.80
2019-03-29T13:36:09.105Z,7.77
2019-03-29T13:38:12.969Z,7.03
2019-03-29T13:40:16.847Z,5.27
2019-03-29T13:42:20.742Z,5.93
2019-03-29T13:44:26.787Z,6.87
2019-03-29T13:46:29.355Z,4.97
2019-03-29T13:48:33.188Z,5.53
2019-03-29T13:50:37.081Z,5.53
2019-03-29T13:52:40.937Z,7.77
2019-03-29T13:54:44.789Z,7.53
2019-03-29T13:56:48.696Z,6.40
2019-03-29T13:58:52.619Z,7.27
2019-03-29T14:00:56.517Z,10.63
2019-03-29T14:03:00.440Z,7.00
2019-03-29T14:05:05.941Z,7.17
2019-03-29T14:07:12.042Z,5.43
2019-03-29T14:09:15.107Z,5.57
2019-03-29T14:11:20.229Z,5.17
2019-03-29T14:13:24.058Z,5.53
2019-03-29T14:15:27.937Z,5.77
2019-03-29T14:17:31.857Z,6.50
2019-03-29T14:19:35.775Z,5.23
2019-03-29T14:21:39.309Z,5.87
2019-03-29T14:23:43.154Z,5.53
2019-03-29T14:25:46.960Z,5.43
2019-03-29T14:27:50.870Z,6.23
2019-03-29T14:30:04.158Z,7.33
2019-03-29T14:32:00.316Z,5.13
2019-03-29T14:34:03.902Z,6.30
2019-03-29T14:36:07.720Z,5.50
2019-03-29T14:38:11.619Z,9.23
2019-03-29T14:40:15.517Z,5.67
2019-03-29T14:42:19.437Z,5.30
2019-03-29T14:44:23.244Z,6.20
2019-03-29T14:46:27.133Z,6.90
2019-03-29T14:48:31.067Z,5.00
2019-03-29T14:50:34.851Z,7.20
2019-03-29T14:52:38.755Z,8.27
2019-03-29T14:54:42.282Z,7.50
2019-03-29T14:56:46.159Z,6.30
2019-03-29T14:58:50.074Z,4.63
2019-03-29T15:00:55.512Z,4.77
2019-03-29T15:02:59.530Z,4.97
2019-03-29T15:05:03.669Z,5.10
2019-03-29T15:07:07.193Z,6.33
2019-03-29T15:09:11.028Z,5.80
2019-03-29T15:11:22.146Z,5.27
2019-03-29T15:13:20.185Z,5.87
2019-03-29T15:15:24.575Z,8.43
2019-03-29T15:17:28.496Z,6.47
2019-03-29T15:19:32.400Z,5.37
2019-03-29T15:21:36.294Z,4.80
2019-03-29T15:23:40.509Z,9.87
2019-03-29T15:25:44.053Z,5.10
2019-03-29T15:27:49.451Z,5.73
2019-03-29T15:29:53.351Z,5.63
2019-03-29T15:31:57.293Z,6.33
2019-03-29T15:34:01.172Z,7.83
2019-03-29T15:36:05.637Z,8.07
2019-03-29T15:38:09.591Z,6.13
2019-03-29T15:40:13.500Z,7.53
2019-03-29T15:42:20.327Z,6.27
2019-03-29T15:44:22.835Z,5.83
2019-03-29T15:46:26.749Z,7.97
2019-03-29T15:48:30.726Z,7.37
2019-03-29T15:50:36.099Z,7.63
2019-03-29T15:52:39.905Z,7.20
2019-03-29T15:54:43.456Z,8.37
2019-03-29T15:56:47.877Z,6.97
2019-03-29T15:58:51.417Z,6.47
2019-03-29T16:00:54.985Z,10.50
2019-03-29T16:02:58.804Z,7.27
2019-03-29T16:05:02.345Z,6.80
2019-03-29T16:07:05.869Z,5.90
2019-03-29T16:09:09.701Z,6.67
2019-03-29T16:11:17.136Z,8.10
2019-03-29T16:13:19.151Z,8.73
2019-03-29T16:15:34.855Z,8.13
2019-03-29T16:17:29.236Z,7.77
2019-03-29T16:19:33.132Z,7.20
2019-03-29T16:21:37.031Z,6.43
2019-03-29T16:23:40.957Z,5.53
2019-03-29T16:25:44.843Z,8.30
2019-03-29T16:27:48.745Z,6.37
2019-03-29T16:29:52.305Z,7.80
2019-03-29T16:31:55.832Z,7.03
2019-03-29T16:33:59.746Z,9.20
2019-03-29T16:36:03.669Z,6.40
2019-03-29T16:38:07.564Z,7.87
2019-03-29T16:40:11.859Z,7.83
2019-03-29T16:42:15.763Z,8.37
2019-03-29T16:44:21.212Z,6.53
2019-03-29T16:46:24.727Z,5.23
2019-03-29T16:48:28.621Z,24.10
2019-03-29T16:50:32.541Z,8.73
2019-03-29T16:52:36.444Z,7.57
2019-03-29T16:54:40.332Z,6.60
2019-03-29T16:56:44.237Z,9.17
2019-03-29T16:58:48.156Z,8.50
2019-03-29T17:00:52.069Z,6.13
2019-03-29T17:02:55.955Z,12.27
2019-03-29T17:04:59.861Z,8.20
2019-03-29T17:07:03.399Z,9.33
2019-03-29T17:09:08.165Z,9.90
2019-03-29T17:11:11.978Z,8.33
2019-03-29T17:13:15.891Z,6.73
2019-03-29T17:15:19.796Z,8.00
2019-03-29T17:17:23.705Z,7.83
2019-03-29T17:19:27.511Z,6.40
2019-03-29T17:21:31.027Z,9.60
2019-03-29T17:23:34.914Z,8.30
2019-03-29T17:25:38.717Z,7.70
2019-03-29T17:27:42.613Z,7.27
2019-03-29T17:29:48.649Z,7.90
2019-03-29T17:31:53.389Z,8.40
2019-03-29T17:33:57.209Z,7.33
2019-03-29T17:36:01.093Z,8.17
2019-03-29T17:38:04.960Z,6.53
2019-03-29T17:40:09.325Z,6.17
2019-03-29T17:42:13.119Z,7.20
2019-03-29T17:44:17.126Z,9.23
2019-03-29T17:46:20.935Z,9.03
2019-03-29T17:48:24.491Z,9.97
2019-03-29T17:50:28.347Z,7.10
2019-03-29T17:52:32.255Z,6.43
2019-03-29T17:54:36.088Z,9.30
2019-03-29T17:56:40.368Z,7.80
2019-03-29T17:58:44.039Z,7.73
2019-03-29T18:00:47.899Z,6.30
2019-03-29T18:02:51.767Z,6.57
2019-03-29T18:04:55.699Z,5.83
2019-03-29T18:06:59.576Z,8.07
2019-03-29T18:09:04.507Z,7.00
2019-03-29T18:11:08.406Z,8.10
2019-03-29T18:13:12.219Z,7.70
2019-03-29T18:15:16.647Z,8.25
2019-03-29T18:17:20.550Z,7.73
2019-03-29T18:19:24.450Z,7.90
2019-03-29T18:21:28.345Z,8.73
2019-03-29T18:23:32.760Z,7.97
2019-03-29T18:25:38.204Z,8.00
2019-03-29T18:27:42.021Z,8.20
2019-03-29T18:29:46.024Z,9.10
2019-03-29T18:31:50.023Z,8.40
2019-03-29T18:33:53.949Z,9.90
2019-03-29T18:35:57.943Z,7.73
2019-03-29T18:38:12.452Z,8.93
2019-03-29T18:40:22.237Z,8.90
2019-03-29T18:42:26.039Z,8.83
2019-03-29T18:44:29.945Z,9.43
2019-03-29T18:46:43.961Z,8.10
2019-03-29T18:48:39.381Z,11.37
2019-03-29T18:50:43.193Z,8.43
2019-03-29T18:52:46.717Z,11.27
2019-03-29T18:54:50.601Z,10.53
2019-03-29T18:56:54.509Z,11.70
2019-03-29T18:58:58.428Z,9.30
2019-03-29T19:01:01.974Z,9.10
2019-03-29T19:03:06.111Z,10.35
2019-03-29T19:05:16.275Z,9.10
2019-03-29T19:07:23.167Z,9.60
2019-03-29T19:09:31.699Z,8.73
2019-03-29T19:11:35.558Z,10.72
2019-03-29T19:13:39.769Z,9.45
2019-03-29T19:15:43.894Z,10.93
2019-03-29T19:17:47.432Z,10.43
2019-03-29T19:19:51.005Z,11.23
2019-03-29T19:21:55.185Z,11.05
2019-03-29T19:23:59.051Z,12.28
2019-03-29T19:26:03.215Z,10.88
2019-03-29T19:28:07.326Z,10.75
2019-03-29T19:30:11.997Z,8.78
2019-03-29T19:32:15.963Z,10.23
2019-03-29T19:34:20.151Z,12.23
2019-03-29T19:36:24.255Z,10.60
2019-03-29T19:38:28.393Z,12.13
2019-03-29T19:40:32.597Z,10.00
2019-03-29T19:42:36.436Z,11.63
2019-03-29T19:44:40.611Z,9.98
2019-03-29T19:46:45.029Z,12.20
2019-03-29T19:48:49.147Z,13.58
2019-03-29T19:50:53.384Z,12.10
2019-03-29T19:52:58.073Z,13.30
2019-03-29T19:55:02.157Z,12.43
2019-03-29T19:57:07.253Z,11.83
2019-03-29T19:59:11.341Z,15.72
2019-03-29T20:01:18.796Z,13.78
2019-03-29T20:03:23.060Z,11.35
2019-03-29T20:05:28.414Z,11.10
2019-03-29T20:07:32.587Z,10.35
2019-03-29T20:09:36.709Z,10.53
2019-03-29T20:11:40.534Z,12.90
2019-03-29T20:13:45.639Z,10.15
2019-03-29T20:15:49.744Z,11.70
2019-03-29T20:17:53.852Z,10.65
2019-03-29T20:19:57.753Z,11.88
2019-03-29T20:22:01.865Z,11.53
2019-03-29T20:24:06.077Z,10.93
2019-03-29T20:26:10.191Z,15.55
2019-03-29T20:28:14.297Z,15.32
2019-03-29T20:30:18.618Z,15.38
2019-03-29T20:32:22.444Z,11.63
2019-03-29T20:34:26.286Z,13.50
2019-03-29T20:36:30.933Z,13.83
2019-03-29T20:38:34.794Z,11.55
2019-03-29T20:40:39.163Z,14.30
2019-03-29T20:42:43.006Z,13.75
2019-03-29T20:44:47.188Z,14.30
2019-03-29T20:46:51.036Z,14.23
2019-03-29T20:48:55.205Z,12.78
2019-03-29T20:50:59.310Z,13.40
2019-03-29T20:53:03.526Z,15.48
2019-03-29T20:55:08.776Z,15.83
2019-03-29T20:57:14.500Z,15.20
2019-03-29T20:59:18.604Z,14.80
2019-03-29T21:01:22.936Z,12.07
2019-03-29T21:03:27.135Z,13.93
2019-03-29T21:05:30.952Z,14.43
2019-03-29T21:07:36.185Z,14.68
2019-03-29T21:09:40.402Z,15.25
2019-03-29T21:11:44.502Z,13.28
2019-03-29T21:13:48.895Z,15.50
2019-03-29T21:15:53.144Z,17.62
2019-03-29T21:17:58.114Z,15.55
2019-03-29T21:20:01.976Z,16.75
2019-03-29T21:22:06.198Z,15.00
2019-03-29T21:24:10.880Z,15.05
2019-03-29T21:26:14.990Z,19.27
2019-03-29T21:28:18.795Z,14.20
2019-03-29T21:30:23.130Z,18.37
2019-03-29T21:32:27.356Z,17.12
2019-03-29T21:34:31.574Z,18.12
2019-03-29T21:36:35.784Z,14.65
2019-03-29T21:38:39.991Z,15.23
2019-03-29T21:40:44.196Z,18.45
2019-03-29T21:42:48.433Z,13.98
2019-03-29T21:44:52.372Z,18.45
2019-03-29T21:46:57.896Z,16.62
2019-03-29T21:49:01.968Z,16.00
2019-03-29T21:51:06.075Z,15.18
2019-03-29T21:53:13.262Z,16.80
2019-03-29T21:55:17.471Z,16.60
2019-03-29T21:57:25.344Z,17.23
2019-03-29T21:59:29.182Z,18.23
2019-03-29T22:01:33.395Z,16.57
2019-03-29T22:03:37.611Z,16.67
2019-03-29T22:05:41.816Z,15.75
2019-03-29T22:07:47.508Z,16.60
2019-03-29T22:09:51.664Z,16.85
2019-03-29T22:11:55.792Z,16.05
2019-03-29T22:14:02.850Z,17.45
2019-03-29T22:16:07.703Z,16.17
2019-03-29T22:18:11.922Z,17.65
2019-03-29T22:20:16.110Z,15.38
2019-03-29T22:22:20.339Z,17.12
2019-03-29T22:24:26.085Z,17.65
2019-03-29T22:26:30.298Z,17.87
2019-03-29T22:28:34.393Z,16.80
2019-03-29T22:30:38.623Z,15.00
2019-03-29T22:32:42.820Z,15.60
2019-03-29T22:34:46.650Z,16.50
2019-03-29T22:36:50.844Z,15.00
2019-03-29T22:38:55.056Z,17.30
2019-03-29T22:40:59.271Z,16.10
2019-03-29T22:43:03.494Z,17.92
2019-03-29T22:45:07.968Z,17.55
2019-03-29T22:47:12.210Z,15.80
2019-03-29T22:49:16.040Z,17.98
2019-03-29T22:51:20.420Z,19.48
2019-03-29T22:53:24.274Z,16.45
2019-03-29T22:55:28.120Z,18.95
2019-03-29T22:57:31.979Z,19.17
2019-03-29T22:59:38.910Z,20.37
2019-03-29T23:01:45.322Z,19.15
2019-03-29T23:03:49.708Z,17.82
2019-03-29T23:05:53.524Z,19.75
2019-03-29T23:07:57.342Z,18.73
2019-03-29T23:10:01.510Z,17.27
2019-03-29T23:12:05.629Z,20.68
2019-03-29T23:14:09.850Z,17.25
2019-03-29T23:16:14.071Z,19.75
2019-03-29T23:18:18.268Z,19.37
2019-03-29T23:20:22.380Z,19.65
2019-03-29T23:22:26.240Z,18.48
2019-03-29T23:24:30.102Z,20.45
2019-03-29T23:26:34.321Z,17.80
2019-03-29T23:28:38.522Z,22.07
2019-03-29T23:30:42.729Z,19.45
2019-03-29T23:32:47.268Z,21.17
2019-03-29T23:34:51.565Z,20.37
2019-03-29T23:36:55.408Z,19.48
2019-03-29T23:38:59.570Z,17.62
2019-03-29T23:41:03.791Z,21.25
2019-03-29T23:43:07.619Z,21.80
2019-03-29T23:45:12.422Z,19.75
2019-03-29T23:47:17.356Z,21.77
2019-03-29T23:49:21.724Z,20.25
2019-03-29T23:51:25.969Z,20.60
2019-03-29T23:53:30.185Z,20.70
2019-03-29T23:55:34.405Z,21.82
2019-03-29T23:57:38.621Z,19.82
2019-03-29T23:59:42.829Z,22.40
